sensor_id;sensor_type;location;lat;lon;timestamp;P1;durP1;ratioP1;P2;durP2;ratioP2
34146;SDS011;20423;49.448;9.056;2024-01-30T00:04:43;5.9;;;4.4;;
34146;SDS011;20423;49.448;9.056;2024-01-30T00:09:31;5;;;4;;
34146;SDS011;20423;49.448;9.056;2024-01-30T00:14:21;5.1;;;3.7;;
34146;SDS011;20423;49.448;9.056;2024-01-30T00:19:43;4.5;;;3.3;;
34146;SDS011;20423;49.448;9.056;2024-01-30T00:24:21;5.1;;;3.6;;
34146;SDS011;20423;49.448;9.056;2024-01-30T00:29:23;5.8;;;4.3;;
34146;SDS011;20423;49.448;9.056;2024-01-30T00:33:59;5.7;;;4.1;;
34146;SDS011;20423;49.448;9.056;2024-01-30T00:39:23;4.7;;;3.1;;
34146;SDS011;20423;49.448;9.056;2024-01-30T00:44:21;5.9;;;4.5;;
34146;SDS011;20423;49.448;9.056;2024-01-30T00:49:33;4.2;;;3.2;;
34146;SDS011;20423;49.448;9.056;2024-01-30T00:54:23;4.6;;;3.7;;
34146;SDS011;20423;49.448;9.056;2024-01-30T00:59:35;6;;;4.4;;
34146;SDS011;20423;49.448;9.056;2024-01-30T01:04:07;5.1;;;3.5;;
34146;SDS011;20423;49.448;9.056;2024-01-30T01:09:43;6.8;;;4.7;;
34146;SDS011;20423;49.448;9.056;2024-01-30T01:14:43;5.3;;;3.9;;
34146;SDS011;20423;49.448;9.056;2024-01-30T01:19:19;5.5;;;4;;
34146;SDS011;20423;49.448;9.056;2024-01-30T01:24:03;5.3;;;4.1;;
34146;SDS011;20423;49.448;9.056;2024-01-30T01:28:59;6.7;;;3.5;;
34146;SDS011;20423;49.448;9.056;2024-01-30T01:34:03;5.8;;;3.7;;
34146;SDS011;20423;49.448;9.056;2024-01-30T01:39:03;5.5;;;4;;
34146;SDS011;20423;49.448;9.056;2024-01-30T01:44:43;5.9;;;3.8;;
34146;SDS011;20423;49.448;9.056;2024-01-30T01:49:18;5.6;;;3.8;;
34146;SDS011;20423;49.448;9.056;2024-01-30T01:54:33;5.6;;;4.1;;
34146;SDS011;20423;49.448;9.056;2024-01-30T01:59:22;5.2;;;3.9;;
34146;SDS011;20423;49.448;9.056;2024-01-30T02:04:43;5;;;3.9;;
34146;SDS011;20423;49.448;9.056;2024-01-30T02:09:33;5.8;;;4.2;;
34146;SDS011;20423;49.448;9.056;2024-01-30T02:14:43;5.2;;;3.9;;
34146;SDS011;20423;49.448;9.056;2024-01-30T02:19:17;5.5;;;4.1;;
34146;SDS011;20423;49.448;9.056;2024-01-30T02:24:33;5.7;;;4.2;;
34146;SDS011;20423;49.448;9.056;2024-01-30T02:29:01;4.2;;;3.3;;
34146;SDS011;20423;49.448;9.056;2024-01-30T02:34:43;4.9;;;3.8;;
34146;SDS011;20423;49.448;9.056;2024-01-30T02:39:11;5.7;;;4;;
34146;SDS011;20423;49.448;9.056;2024-01-30T02:44:33;6.2;;;4.5;;
34146;SDS011;20423;49.448;9.056;2024-01-30T02:49:43;6.2;;;4.6;;
34146;SDS011;20423;49.448;9.056;2024-01-30T02:54:13;7;;;5.1;;
34146;SDS011;20423;49.448;9.056;2024-01-30T02:59:07;6.3;;;5;;
34146;SDS011;20423;49.448;9.056;2024-01-30T03:04:11;6.6;;;4.8;;
34146;SDS011;20423;49.448;9.056;2024-01-30T03:09:09;7.1;;;5.8;;
34146;SDS011;20423;49.448;9.056;2024-01-30T03:13:59;7.5;;;5.3;;
34146;SDS011;20423;49.448;9.056;2024-01-30T03:19:13;6.8;;;4.9;;
34146;SDS011;20423;49.448;9.056;2024-01-30T03:24:21;6.6;;;5.5;;
34146;SDS011;20423;49.448;9.056;2024-01-30T03:29:33;8.4;;;6.5;;
34146;SDS011;20423;49.448;9.056;2024-01-30T03:34:17;8.7;;;7;;
34146;SDS011;20423;49.448;9.056;2024-01-30T03:39:45;7.9;;;5.8;;
34146;SDS011;20423;49.448;9.056;2024-01-30T03:44:09;8.7;;;5.6;;
34146;SDS011;20423;49.448;9.056;2024-01-30T03:49:43;6.7;;;5.6;;
34146;SDS011;20423;49.448;9.056;2024-01-30T03:54:15;6.2;;;5;;
34146;SDS011;20423;49.448;9.056;2024-01-30T03:59:35;7.3;;;5.4;;
34146;SDS011;20423;49.448;9.056;2024-01-30T04:04:25;7.1;;;5.2;;
34146;SDS011;20423;49.448;9.056;2024-01-30T04:09:45;6.5;;;4.6;;
34146;SDS011;20423;49.448;9.056;2024-01-30T04:14:13;6;;;4.8;;
34146;SDS011;20423;49.448;9.056;2024-01-30T04:19:01;7;;;4.8;;
34146;SDS011;20423;49.448;9.056;2024-01-30T04:24:25;7;;;5.4;;
34146;SDS011;20423;49.448;9.056;2024-01-30T04:28:59;7.9;;;5.2;;
34146;SDS011;20423;49.448;9.056;2024-01-30T04:34:00;6.9;;;5.5;;
34146;SDS011;20423;49.448;9.056;2024-01-30T04:38:59;7.8;;;5.9;;
34146;SDS011;20423;49.448;9.056;2024-01-30T04:44:15;7.8;;;5.9;;
34146;SDS011;20423;49.448;9.056;2024-01-30T04:49:15;9.3;;;6.3;;
34146;SDS011;20423;49.448;9.056;2024-01-30T04:54:05;7.9;;;5.6;;
34146;SDS011;20423;49.448;9.056;2024-01-30T04:59:23;8.1;;;6.6;;
34146;SDS011;20423;49.448;9.056;2024-01-30T05:04:43;11;;;8.2;;
34146;SDS011;20423;49.448;9.056;2024-01-30T05:09:15;9.2;;;7.5;;
34146;SDS011;20423;49.448;9.056;2024-01-30T05:14:43;9.2;;;7.2;;
34146;SDS011;20423;49.448;9.056;2024-01-30T05:19:19;7.9;;;6.2;;
34146;SDS011;20423;49.448;9.056;2024-01-30T05:24:33;9.9;;;6.8;;
34146;SDS011;20423;49.448;9.056;2024-01-30T05:29:43;8.7;;;6.3;;
34146;SDS011;20423;49.448;9.056;2024-01-30T05:34:43;8.1;;;5.9;;
34146;SDS011;20423;49.448;9.056;2024-01-30T05:39:01;9.2;;;7;;
34146;SDS011;20423;49.448;9.056;2024-01-30T05:44:14;9.2;;;7.1;;
34146;SDS011;20423;49.448;9.056;2024-01-30T05:49:29;9.6;;;7.8;;
34146;SDS011;20423;49.448;9.056;2024-01-30T05:54:33;8.5;;;6.4;;
34146;SDS011;20423;49.448;9.056;2024-01-30T05:59:44;12.6;;;9.5;;
34146;SDS011;20423;49.448;9.056;2024-01-30T06:04:13;13.1;;;10;;
34146;SDS011;20423;49.448;9.056;2024-01-30T06:09:43;11.5;;;9;;
34146;SDS011;20423;49.448;9.056;2024-01-30T06:13:59;12.3;;;8.9;;
34146;SDS011;20423;49.448;9.056;2024-01-30T06:19:27;11.4;;;9;;
34146;SDS011;20423;49.448;9.056;2024-01-30T06:24:05;12.3;;;9.1;;
34146;SDS011;20423;49.448;9.056;2024-01-30T06:29:17;12.6;;;10.1;;
34146;SDS011;20423;49.448;9.056;2024-01-30T06:34:13;12.1;;;9.3;;
34146;SDS011;20423;49.448;9.056;2024-01-30T06:39:43;12.1;;;9;;
34146;SDS011;20423;49.448;9.056;2024-01-30T06:44:33;13.6;;;8.9;;
34146;SDS011;20423;49.448;9.056;2024-01-30T06:49:17;14.3;;;11.5;;
34146;SDS011;20423;49.448;9.056;2024-01-30T06:54:43;14.4;;;11.1;;
34146;SDS011;20423;49.448;9.056;2024-01-30T06:59:31;15.1;;;11.8;;
34146;SDS011;20423;49.448;9.056;2024-01-30T07:04:43;14.8;;;11.6;;
34146;SDS011;20423;49.448;9.056;2024-01-30T07:09:43;15.3;;;11.5;;
34146;SDS011;20423;49.448;9.056;2024-01-30T07:14:23;15;;;11.8;;
34146;SDS011;20423;49.448;9.056;2024-01-30T07:18:59;13.9;;;9.9;;
34146;SDS011;20423;49.448;9.056;2024-01-30T07:24:06;14;;;10.4;;
34146;SDS011;20423;49.448;9.056;2024-01-30T07:29:31;15.1;;;11.4;;
34146;SDS011;20423;49.448;9.056;2024-01-30T07:34:43;13.5;;;10.4;;
34146;SDS011;20423;49.448;9.056;2024-01-30T07:39:07;14.6;;;11.8;;
34146;SDS011;20423;49.448;9.056;2024-01-30T07:44:41;16.7;;;11.6;;
34146;SDS011;20423;49.448;9.056;2024-01-30T07:49:25;15.4;;;11.7;;
34146;SDS011;20423;49.448;9.056;2024-01-30T07:54:23;17.6;;;12.6;;
34146;SDS011;20423;49.448;9.056;2024-01-30T07:59:11;18.6;;;13.4;;
34146;SDS011;20423;49.448;9.056;2024-01-30T08:04:03;18.6;;;14.3;;
34146;SDS011;20423;49.448;9.056;2024-01-30T08:09:03;15.8;;;12.7;;
34146;SDS011;20423;49.448;9.056;2024-01-30T08:14:41;16.9;;;13.5;;
34146;SDS011;20423;49.448;9.056;2024-01-30T08:19:41;16.6;;;13;;
34146;SDS011;20423;49.448;9.056;2024-01-30T08:24:17;17.7;;;12.5;;
34146;SDS011;20423;49.448;9.056;2024-01-30T08:29:41;15.7;;;12.9;;
34146;SDS011;20423;49.448;9.056;2024-01-30T08:34:21;17.3;;;13.3;;
34146;SDS011;20423;49.448;9.056;2024-01-30T08:39:01;15.3;;;12.1;;
34146;SDS011;20423;49.448;9.056;2024-01-30T08:44:31;16.9;;;12.4;;
34146;SDS011;20423;49.448;9.056;2024-01-30T08:49:01;14.6;;;11.4;;
34146;SDS011;20423;49.448;9.056;2024-01-30T08:54:08;14.8;;;11.8;;
34146;SDS011;20423;49.448;9.056;2024-01-30T08:59:31;16.5;;;12.4;;
34146;SDS011;20423;49.448;9.056;2024-01-30T09:04:00;14.2;;;11.6;;
34146;SDS011;20423;49.448;9.056;2024-01-30T09:09:22;17.3;;;13.2;;
34146;SDS011;20423;49.448;9.056;2024-01-30T09:14:11;14.7;;;11.8;;
34146;SDS011;20423;49.448;9.056;2024-01-30T09:19:17;14.7;;;11.4;;
34146;SDS011;20423;49.448;9.056;2024-01-30T09:24:41;14.1;;;11.7;;
34146;SDS011;20423;49.448;9.056;2024-01-30T09:29:07;14.7;;;11.6;;
34146;SDS011;20423;49.448;9.056;2024-01-30T09:33:59;15.8;;;11.6;;
34146;SDS011;20423;49.448;9.056;2024-01-30T09:39:23;16;;;12.6;;
34146;SDS011;20423;49.448;9.056;2024-01-30T09:44:16;18;;;12.7;;
34146;SDS011;20423;49.448;9.056;2024-01-30T09:49:00;15;;;12;;
34146;SDS011;20423;49.448;9.056;2024-01-30T09:54:41;15.8;;;12.9;;
34146;SDS011;20423;49.448;9.056;2024-01-30T09:58:59;18;;;14.4;;
34146;SDS011;20423;49.448;9.056;2024-01-30T10:04:33;18.3;;;13.7;;
34146;SDS011;20423;49.448;9.056;2024-01-30T10:09:24;17;;;13.6;;
34146;SDS011;20423;49.448;9.056;2024-01-30T10:14:44;17.9;;;14.1;;
34146;SDS011;20423;49.448;9.056;2024-01-30T10:19:13;17.2;;;14.2;;
34146;SDS011;20423;49.448;9.056;2024-01-30T10:24:34;17.4;;;14.1;;
34146;SDS011;20423;49.448;9.056;2024-01-30T10:29:09;17.4;;;15.2;;
34146;SDS011;20423;49.448;9.056;2024-01-30T10:34:34;18.5;;;15.3;;
34146;SDS011;20423;49.448;9.056;2024-01-30T10:39:23;14.8;;;12.8;;
34146;SDS011;20423;49.448;9.056;2024-01-30T10:44:44;19.5;;;14.7;;
34146;SDS011;20423;49.448;9.056;2024-01-30T10:48:59;16.1;;;13.7;;
34146;SDS011;20423;49.448;9.056;2024-01-30T10:54:33;17.2;;;13.8;;
34146;SDS011;20423;49.448;9.056;2024-01-30T10:59:44;16.1;;;13.3;;
34146;SDS011;20423;49.448;9.056;2024-01-30T11:04:05;20.9;;;18.8;;
34146;SDS011;20423;49.448;9.056;2024-01-30T11:09:09;19.4;;;17;;
34146;SDS011;20423;49.448;9.056;2024-01-30T11:14:00;27.8;;;23.8;;
34146;SDS011;20423;49.448;9.056;2024-01-30T11:19:00;19;;;16.6;;
34146;SDS011;20423;49.448;9.056;2024-01-30T11:23:59;17.9;;;14.7;;
34146;SDS011;20423;49.448;9.056;2024-01-30T11:29:39;26.1;;;20.6;;
34146;SDS011;20423;49.448;9.056;2024-01-30T11:34:00;36.8;;;31.5;;
34146;SDS011;20423;49.448;9.056;2024-01-30T11:39:32;23.5;;;19.8;;
34146;SDS011;20423;49.448;9.056;2024-01-30T11:44:06;18.9;;;16;;
34146;SDS011;20423;49.448;9.056;2024-01-30T11:49:42;25.9;;;22;;
34146;SDS011;20423;49.448;9.056;2024-01-30T11:53:59;20.9;;;18;;
34146;SDS011;20423;49.448;9.056;2024-01-30T11:59:25;19.3;;;15.8;;
34146;SDS011;20423;49.448;9.056;2024-01-30T12:04:06;15.6;;;13.2;;
34146;SDS011;20423;49.448;9.056;2024-01-30T12:09:34;20.1;;;16.8;;
34146;SDS011;20423;49.448;9.056;2024-01-30T12:14:18;19.1;;;14.7;;
34146;SDS011;20423;49.448;9.056;2024-01-30T12:19:40;20.2;;;17.5;;
34146;SDS011;20423;49.448;9.056;2024-01-30T12:24:00;20.7;;;16.6;;
34146;SDS011;20423;49.448;9.056;2024-01-30T12:29:10;19.3;;;15.7;;
34146;SDS011;20423;49.448;9.056;2024-01-30T12:34:40;18.5;;;15.8;;
34146;SDS011;20423;49.448;9.056;2024-01-30T12:39:10;20.2;;;15.9;;
34146;SDS011;20423;49.448;9.056;2024-01-30T12:44:00;18.4;;;15.1;;
34146;SDS011;20423;49.448;9.056;2024-01-30T12:49:00;17.9;;;14.6;;
34146;SDS011;20423;49.448;9.056;2024-01-30T12:54:04;18.1;;;14.7;;
34146;SDS011;20423;49.448;9.056;2024-01-30T12:59:16;18.9;;;15.5;;
34146;SDS011;20423;49.448;9.056;2024-01-30T13:04:00;17.2;;;15.2;;
34146;SDS011;20423;49.448;9.056;2024-01-30T13:09:22;20.5;;;16;;
34146;SDS011;20423;49.448;9.056;2024-01-30T13:14:42;17.8;;;14.4;;
34146;SDS011;20423;49.448;9.056;2024-01-30T13:19:34;18.5;;;16.7;;
34146;SDS011;20423;49.448;9.056;2024-01-30T13:24:42;16.8;;;15.3;;
34146;SDS011;20423;49.448;9.056;2024-01-30T13:29:30;16;;;12;;
34146;SDS011;20423;49.448;9.056;2024-01-30T13:34:34;16.8;;;13.7;;
34146;SDS011;20423;49.448;9.056;2024-01-30T13:39:34;14.1;;;12.4;;
34146;SDS011;20423;49.448;9.056;2024-01-30T13:44:34;11.7;;;9.1;;
34146;SDS011;20423;49.448;9.056;2024-01-30T13:49:42;12.5;;;10.7;;
34146;SDS011;20423;49.448;9.056;2024-01-30T13:54:00;13.1;;;11.7;;
34146;SDS011;20423;49.448;9.056;2024-01-30T13:59:42;13.3;;;10.9;;
34146;SDS011;20423;49.448;9.056;2024-01-30T14:04:32;14.5;;;12;;
34146;SDS011;20423;49.448;9.056;2024-01-30T14:09:40;16.2;;;12.5;;
34146;SDS011;20423;49.448;9.056;2024-01-30T14:14:12;17.1;;;13.8;;
34146;SDS011;20423;49.448;9.056;2024-01-30T14:19:40;16.6;;;14.5;;
34146;SDS011;20423;49.448;9.056;2024-01-30T14:24:18;26.5;;;22.7;;
34146;SDS011;20423;49.448;9.056;2024-01-30T14:29:00;28.3;;;24.5;;
34146;SDS011;20423;49.448;9.056;2024-01-30T14:34:00;28.9;;;24.5;;
34146;SDS011;20423;49.448;9.056;2024-01-30T14:39:00;30.8;;;24.8;;
34146;SDS011;20423;49.448;9.056;2024-01-30T14:44:04;25.1;;;21.5;;
34146;SDS011;20423;49.448;9.056;2024-01-30T14:49:30;19.5;;;16.9;;
34146;SDS011;20423;49.448;9.056;2024-01-30T14:54:32;44.1;;;35.3;;
34146;SDS011;20423;49.448;9.056;2024-01-30T14:59:30;23.9;;;20.5;;
34146;SDS011;20423;49.448;9.056;2024-01-30T15:04:40;24.6;;;20.5;;
34146;SDS011;20423;49.448;9.056;2024-01-30T15:09:24;21.8;;;17.3;;
34146;SDS011;20423;49.448;9.056;2024-01-30T15:14:40;23;;;19;;
34146;SDS011;20423;49.448;9.056;2024-01-30T15:19:40;40.6;;;32.6;;
34146;SDS011;20423;49.448;9.056;2024-01-30T15:24:22;31.1;;;26.6;;
34146;SDS011;20423;49.448;9.056;2024-01-30T15:29:32;36.5;;;31;;
34146;SDS011;20423;49.448;9.056;2024-01-30T15:34:32;45.4;;;37.1;;
34146;SDS011;20423;49.448;9.056;2024-01-30T15:39:32;78;;;61.5;;
34146;SDS011;20423;49.448;9.056;2024-01-30T15:44:40;78.1;;;61;;
34146;SDS011;20423;49.448;9.056;2024-01-30T15:49:32;49.9;;;40.2;;
34146;SDS011;20423;49.448;9.056;2024-01-30T15:54:40;41.2;;;34.5;;
34146;SDS011;20423;49.448;9.056;2024-01-30T15:59:18;32.2;;;29;;
34146;SDS011;20423;49.448;9.056;2024-01-30T16:04:12;40.7;;;35.1;;
34146;SDS011;20423;49.448;9.056;2024-01-30T16:09:14;31.2;;;25.7;;
34146;SDS011;20423;49.448;9.056;2024-01-30T16:14:00;36.1;;;31;;
34146;SDS011;20423;49.448;9.056;2024-01-30T16:19:00;33.7;;;27.9;;
34146;SDS011;20423;49.448;9.056;2024-01-30T16:24:40;27.7;;;24.4;;
34146;SDS011;20423;49.448;9.056;2024-01-30T16:29:32;35.6;;;30.2;;
34146;SDS011;20423;49.448;9.056;2024-01-30T16:34:18;33.5;;;28.4;;
34146;SDS011;20423;49.448;9.056;2024-01-30T16:39:40;33.6;;;28.5;;
34146;SDS011;20423;49.448;9.056;2024-01-30T16:44:00;32.2;;;27.7;;
34146;SDS011;20423;49.448;9.056;2024-01-30T16:49:18;34.3;;;28.7;;
34146;SDS011;20423;49.448;9.056;2024-01-30T16:54:12;26.8;;;23.8;;
34146;SDS011;20423;49.448;9.056;2024-01-30T16:59:14;27.9;;;25.2;;
34146;SDS011;20423;49.448;9.056;2024-01-30T17:04:00;28.6;;;25.3;;
34146;SDS011;20423;49.448;9.056;2024-01-30T17:09:32;27.4;;;24.1;;
34146;SDS011;20423;49.448;9.056;2024-01-30T17:14:12;29;;;24.8;;
34146;SDS011;20423;49.448;9.056;2024-01-30T17:19:25;29.5;;;26;;
34146;SDS011;20423;49.448;9.056;2024-01-30T17:24:14;22.2;;;18.6;;
34146;SDS011;20423;49.448;9.056;2024-01-30T17:29:44;21.6;;;18.8;;
34146;SDS011;20423;49.448;9.056;2024-01-30T17:34:44;20.6;;;17.3;;
34146;SDS011;20423;49.448;9.056;2024-01-30T17:39:14;19.3;;;16.7;;
34146;SDS011;20423;49.448;9.056;2024-01-30T17:44:00;19;;;15.4;;
34146;SDS011;20423;49.448;9.056;2024-01-30T17:49:18;22.4;;;19.5;;
34146;SDS011;20423;49.448;9.056;2024-01-30T17:54:01;29.8;;;24.3;;
34146;SDS011;20423;49.448;9.056;2024-01-30T17:59:00;32.2;;;27.9;;
34146;SDS011;20423;49.448;9.056;2024-01-30T18:04:44;33.3;;;27.9;;
34146;SDS011;20423;49.448;9.056;2024-01-30T18:09:32;38.9;;;33.3;;
34146;SDS011;20423;49.448;9.056;2024-01-30T18:14:34;28;;;24.6;;
34146;SDS011;20423;49.448;9.056;2024-01-30T18:19:24;29.2;;;25.2;;
34146;SDS011;20423;49.448;9.056;2024-01-30T18:24:44;30.1;;;26.8;;
34146;SDS011;20423;49.448;9.056;2024-01-30T18:29:08;34.8;;;30.2;;
34146;SDS011;20423;49.448;9.056;2024-01-30T18:34:26;38.6;;;31.4;;
34146;SDS011;20423;49.448;9.056;2024-01-30T18:39:08;38.4;;;32.2;;
34146;SDS011;20423;49.448;9.056;2024-01-30T18:44:34;39;;;31.4;;
34146;SDS011;20423;49.448;9.056;2024-01-30T18:49:11;48.3;;;39.4;;
34146;SDS011;20423;49.448;9.056;2024-01-30T18:54:44;69.5;;;53.1;;
34146;SDS011;20423;49.448;9.056;2024-01-30T18:59:34;66.5;;;51.5;;
34146;SDS011;20423;49.448;9.056;2024-01-30T19:04:35;49.6;;;40;;
34146;SDS011;20423;49.448;9.056;2024-01-30T19:09:46;40.1;;;34.7;;
34146;SDS011;20423;49.448;9.056;2024-01-30T19:14:14;37.4;;;32.2;;
34146;SDS011;20423;49.448;9.056;2024-01-30T19:19:00;29.2;;;25.3;;
34146;SDS011;20423;49.448;9.056;2024-01-30T19:24:00;24.8;;;20.6;;
34146;SDS011;20423;49.448;9.056;2024-01-30T19:29:14;25.9;;;22.1;;
34146;SDS011;20423;49.448;9.056;2024-01-30T19:34:00;23.5;;;19.5;;
34146;SDS011;20423;49.448;9.056;2024-01-30T19:39:44;24.8;;;21.1;;
34146;SDS011;20423;49.448;9.056;2024-01-30T19:44:00;22.7;;;17.7;;
34146;SDS011;20423;49.448;9.056;2024-01-30T19:49:34;22.4;;;19.3;;
34146;SDS011;20423;49.448;9.056;2024-01-30T19:54:24;22.7;;;18.1;;
34146;SDS011;20423;49.448;9.056;2024-01-30T19:59:44;25;;;20.7;;
34146;SDS011;20423;49.448;9.056;2024-01-30T20:04:00;25.4;;;21.2;;
34146;SDS011;20423;49.448;9.056;2024-01-30T20:09:03;26.9;;;23.2;;
34146;SDS011;20423;49.448;9.056;2024-01-30T20:14:06;19.2;;;16.5;;
34146;SDS011;20423;49.448;9.056;2024-01-30T20:19:34;20.2;;;16.5;;
34146;SDS011;20423;49.448;9.056;2024-01-30T20:24:03;20;;;17;;
34146;SDS011;20423;49.448;9.056;2024-01-30T20:29:44;22.3;;;18.5;;
34146;SDS011;20423;49.448;9.056;2024-01-30T20:34:00;19.7;;;16.4;;
34146;SDS011;20423;49.448;9.056;2024-01-30T20:39:32;23.6;;;18.2;;
34146;SDS011;20423;49.448;9.056;2024-01-30T20:44:44;20.4;;;17;;
34146;SDS011;20423;49.448;9.056;2024-01-30T20:49:14;20.5;;;16.6;;
34146;SDS011;20423;49.448;9.056;2024-01-30T20:54:00;27.5;;;22.3;;
34146;SDS011;20423;49.448;9.056;2024-01-30T20:59:00;30.1;;;24.2;;
34146;SDS011;20423;49.448;9.056;2024-01-30T21:04:00;27.2;;;21.4;;
34146;SDS011;20423;49.448;9.056;2024-01-30T21:09:00;24.3;;;19.3;;
34146;SDS011;20423;49.448;9.056;2024-01-30T21:14:00;21.6;;;16.4;;
34146;SDS011;20423;49.448;9.056;2024-01-30T21:19:00;21;;;16.2;;
34146;SDS011;20423;49.448;9.056;2024-01-30T21:24:44;21.1;;;18.2;;
34146;SDS011;20423;49.448;9.056;2024-01-30T21:29:26;20.6;;;17.1;;
34146;SDS011;20423;49.448;9.056;2024-01-30T21:34:44;21.7;;;18.5;;
34146;SDS011;20423;49.448;9.056;2024-01-30T21:39:44;22.5;;;17.9;;
34146;SDS011;20423;49.448;9.056;2024-01-30T21:44:34;20.4;;;17.1;;
34146;SDS011;20423;49.448;9.056;2024-01-30T21:49:44;21.2;;;17.6;;
34146;SDS011;20423;49.448;9.056;2024-01-30T21:54:45;25.3;;;18.8;;
34146;SDS011;20423;49.448;9.056;2024-01-30T21:59:16;20.5;;;16.8;;
34146;SDS011;20423;49.448;9.056;2024-01-30T22:04:14;20;;;16.3;;
34146;SDS011;20423;49.448;9.056;2024-01-30T22:09:44;23.1;;;19.6;;
34146;SDS011;20423;49.448;9.056;2024-01-30T22:14:34;22.4;;;18.4;;
34146;SDS011;20423;49.448;9.056;2024-01-30T22:19:44;30.3;;;24.6;;
34146;SDS011;20423;49.448;9.056;2024-01-30T22:24:00;25.1;;;18.5;;
34146;SDS011;20423;49.448;9.056;2024-01-30T22:29:41;20.8;;;16.7;;
34146;SDS011;20423;49.448;9.056;2024-01-30T22:34:06;23.5;;;20;;
34146;SDS011;20423;49.448;9.056;2024-01-30T22:39:01;25.3;;;19.9;;
34146;SDS011;20423;49.448;9.056;2024-01-30T22:44:08;21.9;;;17.1;;
34146;SDS011;20423;49.448;9.056;2024-01-30T22:49:44;20.9;;;17.2;;
34146;SDS011;20423;49.448;9.056;2024-01-30T22:54:00;19.6;;;15.5;;
34146;SDS011;20423;49.448;9.056;2024-01-30T22:59:44;19.5;;;16.2;;
34146;SDS011;20423;49.448;9.056;2024-01-30T23:04:16;18.8;;;14.5;;
34146;SDS011;20423;49.448;9.056;2024-01-30T23:09:00;20.7;;;15.9;;
34146;SDS011;20423;49.448;9.056;2024-01-30T23:14:44;22;;;16.7;;
34146;SDS011;20423;49.448;9.056;2024-01-30T23:19:24;21.2;;;16.4;;
34146;SDS011;20423;49.448;9.056;2024-01-30T23:24:24;20.7;;;16.7;;
34146;SDS011;20423;49.448;9.056;2024-01-30T23:29:14;20.1;;;16.9;;
34146;SDS011;20423;49.448;9.056;2024-01-30T23:34:24;18.5;;;14.7;;
34146;SDS011;20423;49.448;9.056;2024-01-30T23:39:14;23.7;;;18;;
34146;SDS011;20423;49.448;9.056;2024-01-30T23:44:44;25;;;20.1;;
34146;SDS011;20423;49.448;9.056;2024-01-30T23:49:34;23.5;;;18.1;;
34146;SDS011;20423;49.448;9.056;2024-01-30T23:54:44;18.3;;;14;;
34146;SDS011;20423;49.448;9.056;2024-01-30T23:59:00;25.7;;;19.1;;
